sensor_id;sensor_type;location;lat;lon;timestamp;P1;durP1;ratioP1;P2;durP2;ratioP2
25199;SDS011;33094;48.782;9.162;2023-03-14T00:01:19;0.32;;;0.32;;
25199;SDS011;33094;48.782;9.162;2023-03-14T00:03:45;1.02;;;0.80;;
25199;SDS011;33094;48.782;9.162;2023-03-14T00:06:12;1.25;;;1.15;;
25199;SDS011;33094;48.782;9.162;2023-03-14T00:08:38;0.95;;;0.95;;
25199;SDS011;33094;48.782;9.162;2023-03-14T00:11:06;2.90;;;1.05;;
25199;SDS011;33094;48.782;9.162;2023-03-14T00:13:36;1.48;;;0.73;;
25199;SDS011;33094;48.782;9.162;2023-03-14T00:16:03;1.77;;;0.68;;
25199;SDS011;33094;48.782;9.162;2023-03-14T00:18:30;1.65;;;0.82;;
25199;SDS011;33094;48.782;9.162;2023-03-14T00:21:00;2.20;;;0.93;;
25199;SDS011;33094;48.782;9.162;2023-03-14T00:23:27;0.40;;;0.40;;
25199;SDS011;33094;48.782;9.162;2023-03-14T00:25:57;0.50;;;0.50;;
25199;SDS011;33094;48.782;9.162;2023-03-14T00:28:24;1.45;;;0.93;;
25199;SDS011;33094;48.782;9.162;2023-03-14T00:30:50;1.70;;;1.00;;
25199;SDS011;33094;48.782;9.162;2023-03-14T00:33:16;2.17;;;0.60;;
25199;SDS011;33094;48.782;9.162;2023-03-14T00:38:16;3.88;;;0.90;;
25199;SDS011;33094;48.782;9.162;2023-03-14T00:40:42;1.30;;;1.00;;
25199;SDS011;33094;48.782;9.162;2023-03-14T00:45:36;2.50;;;1.00;;
25199;SDS011;33094;48.782;9.162;2023-03-14T00:48:02;1.20;;;0.75;;
25199;SDS011;33094;48.782;9.162;2023-03-14T00:50:28;0.90;;;0.90;;
25199;SDS011;33094;48.782;9.162;2023-03-14T00:52:53;1.45;;;0.90;;
25199;SDS011;33094;48.782;9.162;2023-03-14T00:55:19;1.38;;;1.13;;
25199;SDS011;33094;48.782;9.162;2023-03-14T00:57:45;2.38;;;1.00;;
25199;SDS011;33094;48.782;9.162;2023-03-14T01:00:11;2.50;;;0.93;;
25199;SDS011;33094;48.782;9.162;2023-03-14T01:02:37;1.70;;;0.88;;
25199;SDS011;33094;48.782;9.162;2023-03-14T01:05:03;1.65;;;0.80;;
25199;SDS011;33094;48.782;9.162;2023-03-14T01:07:29;4.70;;;0.93;;
25199;SDS011;33094;48.782;9.162;2023-03-14T01:09:55;2.78;;;0.90;;
25199;SDS011;33094;48.782;9.162;2023-03-14T01:12:21;3.70;;;0.57;;
25199;SDS011;33094;48.782;9.162;2023-03-14T01:14:47;0.90;;;0.63;;
25199;SDS011;33094;48.782;9.162;2023-03-14T01:17:13;2.30;;;0.55;;
25199;SDS011;33094;48.782;9.162;2023-03-14T01:19:38;1.80;;;1.45;;
25199;SDS011;33094;48.782;9.162;2023-03-14T01:22:04;2.65;;;0.88;;
25199;SDS011;33094;48.782;9.162;2023-03-14T01:24:30;1.80;;;0.50;;
25199;SDS011;33094;48.782;9.162;2023-03-14T01:26:55;2.28;;;0.68;;
25199;SDS011;33094;48.782;9.162;2023-03-14T01:29:21;1.77;;;0.70;;
25199;SDS011;33094;48.782;9.162;2023-03-14T01:31:47;0.60;;;0.57;;
25199;SDS011;33094;48.782;9.162;2023-03-14T01:36:39;2.30;;;0.57;;
25199;SDS011;33094;48.782;9.162;2023-03-14T01:39:05;0.57;;;0.43;;
25199;SDS011;33094;48.782;9.162;2023-03-14T01:41:31;0.40;;;0.40;;
25199;SDS011;33094;48.782;9.162;2023-03-14T01:43:56;0.60;;;0.52;;
25199;SDS011;33094;48.782;9.162;2023-03-14T01:51:59;2.83;;;0.55;;
25199;SDS011;33094;48.782;9.162;2023-03-14T01:57:37;1.08;;;0.50;;
25199;SDS011;33094;48.782;9.162;2023-03-14T02:02:37;1.52;;;0.47;;
25199;SDS011;33094;48.782;9.162;2023-03-14T02:05:10;1.35;;;0.73;;
25199;SDS011;33094;48.782;9.162;2023-03-14T02:10:19;1.25;;;0.68;;
25199;SDS011;33094;48.782;9.162;2023-03-14T02:12:53;1.13;;;0.63;;
25199;SDS011;33094;48.782;9.162;2023-03-14T02:17:57;3.75;;;0.80;;
25199;SDS011;33094;48.782;9.162;2023-03-14T02:20:34;2.15;;;0.50;;
25199;SDS011;33094;48.782;9.162;2023-03-14T02:23:15;1.40;;;0.60;;
25199;SDS011;33094;48.782;9.162;2023-03-14T02:25:51;2.47;;;0.50;;
25199;SDS011;33094;48.782;9.162;2023-03-14T02:28:27;1.40;;;0.30;;
25199;SDS011;33094;48.782;9.162;2023-03-14T02:30:52;0.50;;;0.45;;
25199;SDS011;33094;48.782;9.162;2023-03-14T02:33:19;5.82;;;0.70;;
25199;SDS011;33094;48.782;9.162;2023-03-14T02:41:11;0.63;;;0.50;;
25199;SDS011;33094;48.782;9.162;2023-03-14T02:43:37;2.15;;;0.70;;
25199;SDS011;33094;48.782;9.162;2023-03-14T02:46:02;1.30;;;0.60;;
25199;SDS011;33094;48.782;9.162;2023-03-14T02:48:33;9.23;;;0.85;;
25199;SDS011;33094;48.782;9.162;2023-03-14T02:51:04;0.70;;;0.50;;
25199;SDS011;33094;48.782;9.162;2023-03-14T02:53:34;1.55;;;0.60;;
25199;SDS011;33094;48.782;9.162;2023-03-14T02:56:01;0.30;;;0.30;;
25199;SDS011;33094;48.782;9.162;2023-03-14T02:58:37;2.92;;;1.00;;
25199;SDS011;33094;48.782;9.162;2023-03-14T03:01:06;1.02;;;0.57;;
25199;SDS011;33094;48.782;9.162;2023-03-14T03:03:33;1.55;;;0.50;;
25199;SDS011;33094;48.782;9.162;2023-03-14T03:08:35;4.30;;;0.50;;
25199;SDS011;33094;48.782;9.162;2023-03-14T03:11:02;1.33;;;0.55;;
25199;SDS011;33094;48.782;9.162;2023-03-14T03:13:31;0.32;;;0.32;;
25199;SDS011;33094;48.782;9.162;2023-03-14T03:15:57;1.42;;;0.55;;
25199;SDS011;33094;48.782;9.162;2023-03-14T03:18:23;3.45;;;0.50;;
25199;SDS011;33094;48.782;9.162;2023-03-14T03:20:49;1.10;;;0.68;;
25199;SDS011;33094;48.782;9.162;2023-03-14T03:23:18;1.58;;;0.60;;
25199;SDS011;33094;48.782;9.162;2023-03-14T03:25:57;2.72;;;0.60;;
25199;SDS011;33094;48.782;9.162;2023-03-14T03:28:23;2.20;;;0.43;;
25199;SDS011;33094;48.782;9.162;2023-03-14T03:30:49;0.73;;;0.50;;
25199;SDS011;33094;48.782;9.162;2023-03-14T03:33:14;5.60;;;0.50;;
25199;SDS011;33094;48.782;9.162;2023-03-14T03:35:44;4.57;;;0.95;;
25199;SDS011;33094;48.782;9.162;2023-03-14T03:38:12;2.28;;;1.00;;
25199;SDS011;33094;48.782;9.162;2023-03-14T03:40:38;5.22;;;0.65;;
25199;SDS011;33094;48.782;9.162;2023-03-14T03:43:04;2.45;;;0.70;;
25199;SDS011;33094;48.782;9.162;2023-03-14T03:45:29;2.33;;;0.65;;
25199;SDS011;33094;48.782;9.162;2023-03-14T03:47:55;2.65;;;0.70;;
25199;SDS011;33094;48.782;9.162;2023-03-14T03:50:21;1.75;;;0.80;;
25199;SDS011;33094;48.782;9.162;2023-03-14T03:52:47;5.80;;;1.30;;
25199;SDS011;33094;48.782;9.162;2023-03-14T03:55:12;3.53;;;0.70;;
25199;SDS011;33094;48.782;9.162;2023-03-14T03:57:38;3.35;;;0.75;;
25199;SDS011;33094;48.782;9.162;2023-03-14T04:02:37;7.97;;;0.73;;
25199;SDS011;33094;48.782;9.162;2023-03-14T04:05:03;4.95;;;0.88;;
25199;SDS011;33094;48.782;9.162;2023-03-14T04:07:38;3.38;;;1.02;;
25199;SDS011;33094;48.782;9.162;2023-03-14T04:10:22;3.35;;;0.47;;
25199;SDS011;33094;48.782;9.162;2023-03-14T04:15:27;6.68;;;0.90;;
25199;SDS011;33094;48.782;9.162;2023-03-14T04:17:57;3.72;;;1.20;;
25199;SDS011;33094;48.782;9.162;2023-03-14T04:20:23;2.05;;;0.70;;
25199;SDS011;33094;48.782;9.162;2023-03-14T04:22:49;4.70;;;1.15;;
25199;SDS011;33094;48.782;9.162;2023-03-14T04:25:17;3.67;;;0.95;;
25199;SDS011;33094;48.782;9.162;2023-03-14T04:30:17;3.53;;;0.98;;
25199;SDS011;33094;48.782;9.162;2023-03-14T04:35:18;3.97;;;0.90;;
25199;SDS011;33094;48.782;9.162;2023-03-14T04:37:44;4.07;;;0.93;;
25199;SDS011;33094;48.782;9.162;2023-03-14T04:40:13;5.18;;;0.88;;
25199;SDS011;33094;48.782;9.162;2023-03-14T04:42:40;4.32;;;1.08;;
25199;SDS011;33094;48.782;9.162;2023-03-14T04:47:47;2.97;;;0.77;;
25199;SDS011;33094;48.782;9.162;2023-03-14T04:50:13;2.72;;;0.75;;
25199;SDS011;33094;48.782;9.162;2023-03-14T04:55:05;3.70;;;0.90;;
25199;SDS011;33094;48.782;9.162;2023-03-14T04:57:31;4.50;;;0.82;;
25199;SDS011;33094;48.782;9.162;2023-03-14T04:59:57;4.28;;;1.23;;
25199;SDS011;33094;48.782;9.162;2023-03-14T05:02:23;3.58;;;1.00;;
25199;SDS011;33094;48.782;9.162;2023-03-14T05:04:49;5.50;;;1.55;;
25199;SDS011;33094;48.782;9.162;2023-03-14T05:07:14;11.07;;;2.65;;
25199;SDS011;33094;48.782;9.162;2023-03-14T05:09:47;2.83;;;0.80;;
25199;SDS011;33094;48.782;9.162;2023-03-14T05:12:20;4.55;;;1.10;;
25199;SDS011;33094;48.782;9.162;2023-03-14T05:14:45;4.65;;;1.08;;
25199;SDS011;33094;48.782;9.162;2023-03-14T05:17:11;3.78;;;1.00;;
25199;SDS011;33094;48.782;9.162;2023-03-14T05:19:39;5.00;;;1.05;;
25199;SDS011;33094;48.782;9.162;2023-03-14T05:22:05;4.13;;;0.83;;
25199;SDS011;33094;48.782;9.162;2023-03-14T05:24:31;3.50;;;0.90;;
25199;SDS011;33094;48.782;9.162;2023-03-14T05:29:37;4.07;;;1.83;;
25199;SDS011;33094;48.782;9.162;2023-03-14T05:32:02;2.67;;;0.85;;
25199;SDS011;33094;48.782;9.162;2023-03-14T05:37:04;2.83;;;0.98;;
25199;SDS011;33094;48.782;9.162;2023-03-14T05:39:34;4.05;;;1.70;;
25199;SDS011;33094;48.782;9.162;2023-03-14T05:44:39;3.67;;;1.20;;
25199;SDS011;33094;48.782;9.162;2023-03-14T05:47:06;3.92;;;0.95;;
25199;SDS011;33094;48.782;9.162;2023-03-14T05:49:31;2.67;;;0.70;;
25199;SDS011;33094;48.782;9.162;2023-03-14T05:51:57;4.05;;;1.10;;
25199;SDS011;33094;48.782;9.162;2023-03-14T05:54:22;5.65;;;1.38;;
25199;SDS011;33094;48.782;9.162;2023-03-14T05:56:48;6.45;;;1.20;;
25199;SDS011;33094;48.782;9.162;2023-03-14T05:59:14;6.97;;;0.98;;
25199;SDS011;33094;48.782;9.162;2023-03-14T06:01:41;3.95;;;1.10;;
25199;SDS011;33094;48.782;9.162;2023-03-14T06:04:24;5.40;;;1.00;;
25199;SDS011;33094;48.782;9.162;2023-03-14T06:06:50;3.15;;;1.02;;
25199;SDS011;33094;48.782;9.162;2023-03-14T06:09:17;7.20;;;1.70;;
25199;SDS011;33094;48.782;9.162;2023-03-14T06:11:56;5.47;;;1.33;;
25199;SDS011;33094;48.782;9.162;2023-03-14T06:14:25;2.90;;;1.00;;
25199;SDS011;33094;48.782;9.162;2023-03-14T06:16:50;3.22;;;1.00;;
25199;SDS011;33094;48.782;9.162;2023-03-14T06:19:17;3.97;;;0.80;;
25199;SDS011;33094;48.782;9.162;2023-03-14T06:21:43;5.38;;;0.85;;
25199;SDS011;33094;48.782;9.162;2023-03-14T06:24:09;6.90;;;0.90;;
25199;SDS011;33094;48.782;9.162;2023-03-14T06:26:35;4.30;;;1.05;;
25199;SDS011;33094;48.782;9.162;2023-03-14T06:29:00;5.05;;;1.00;;
25199;SDS011;33094;48.782;9.162;2023-03-14T06:31:28;4.18;;;1.00;;
25199;SDS011;33094;48.782;9.162;2023-03-14T06:33:57;8.68;;;3.75;;
25199;SDS011;33094;48.782;9.162;2023-03-14T06:36:23;5.07;;;0.77;;
25199;SDS011;33094;48.782;9.162;2023-03-14T06:38:49;4.10;;;1.08;;
25199;SDS011;33094;48.782;9.162;2023-03-14T06:41:15;4.32;;;1.08;;
25199;SDS011;33094;48.782;9.162;2023-03-14T06:43:41;2.88;;;0.95;;
25199;SDS011;33094;48.782;9.162;2023-03-14T06:46:08;4.22;;;0.88;;
25199;SDS011;33094;48.782;9.162;2023-03-14T06:48:34;3.67;;;1.13;;
25199;SDS011;33094;48.782;9.162;2023-03-14T06:51:00;3.92;;;0.90;;
25199;SDS011;33094;48.782;9.162;2023-03-14T06:56:05;7.35;;;1.25;;
25199;SDS011;33094;48.782;9.162;2023-03-14T06:58:31;1.53;;;1.07;;
25199;SDS011;33094;48.782;9.162;2023-03-14T07:00:57;6.53;;;1.30;;
25199;SDS011;33094;48.782;9.162;2023-03-14T07:03:23;6.47;;;1.20;;
25199;SDS011;33094;48.782;9.162;2023-03-14T07:05:49;9.40;;;1.65;;
25199;SDS011;33094;48.782;9.162;2023-03-14T07:08:15;9.85;;;1.80;;
25199;SDS011;33094;48.782;9.162;2023-03-14T07:10:41;11.23;;;1.90;;
25199;SDS011;33094;48.782;9.162;2023-03-14T07:13:07;3.08;;;0.98;;
25199;SDS011;33094;48.782;9.162;2023-03-14T07:15:34;1.40;;;0.65;;
25199;SDS011;33094;48.782;9.162;2023-03-14T07:18:00;3.13;;;1.02;;
25199;SDS011;33094;48.782;9.162;2023-03-14T07:20:25;3.80;;;0.88;;
25199;SDS011;33094;48.782;9.162;2023-03-14T07:22:51;2.05;;;0.80;;
25199;SDS011;33094;48.782;9.162;2023-03-14T07:25:17;9.50;;;1.25;;
25199;SDS011;33094;48.782;9.162;2023-03-14T07:27:43;1.85;;;0.82;;
25199;SDS011;33094;48.782;9.162;2023-03-14T07:35:11;6.55;;;0.98;;
25199;SDS011;33094;48.782;9.162;2023-03-14T07:37:36;4.60;;;1.10;;
25199;SDS011;33094;48.782;9.162;2023-03-14T07:40:02;3.17;;;1.00;;
25199;SDS011;33094;48.782;9.162;2023-03-14T07:42:31;4.03;;;0.77;;
25199;SDS011;33094;48.782;9.162;2023-03-14T07:44:57;1.40;;;0.60;;
25199;SDS011;33094;48.782;9.162;2023-03-14T07:47:29;3.13;;;0.60;;
25199;SDS011;33094;48.782;9.162;2023-03-14T07:52:44;4.88;;;0.80;;
25199;SDS011;33094;48.782;9.162;2023-03-14T07:55:26;1.02;;;0.22;;
25199;SDS011;33094;48.782;9.162;2023-03-14T07:57:53;2.25;;;0.95;;
25199;SDS011;33094;48.782;9.162;2023-03-14T08:00:24;1.73;;;0.60;;
25199;SDS011;33094;48.782;9.162;2023-03-14T08:08:19;5.53;;;1.13;;
25199;SDS011;33094;48.782;9.162;2023-03-14T08:13:20;1.52;;;0.75;;
25199;SDS011;33094;48.782;9.162;2023-03-14T08:15:47;5.18;;;0.90;;
25199;SDS011;33094;48.782;9.162;2023-03-14T08:20:49;4.95;;;1.33;;
25199;SDS011;33094;48.782;9.162;2023-03-14T08:25:51;5.95;;;0.65;;
25199;SDS011;33094;48.782;9.162;2023-03-14T08:30:54;2.70;;;0.88;;
25199;SDS011;33094;48.782;9.162;2023-03-14T08:33:20;2.38;;;0.68;;
25199;SDS011;33094;48.782;9.162;2023-03-14T08:35:51;2.72;;;0.80;;
25199;SDS011;33094;48.782;9.162;2023-03-14T09:14:44;3.50;;;0.43;;
25199;SDS011;33094;48.782;9.162;2023-03-14T09:43:15;1.35;;;0.40;;
25199;SDS011;33094;48.782;9.162;2023-03-14T10:14:33;1.10;;;0.32;;
25199;SDS011;33094;48.782;9.162;2023-03-14T12:13:37;0.20;;;0.20;;
25199;SDS011;33094;48.782;9.162;2023-03-14T12:36:51;2.83;;;0.25;;
25199;SDS011;33094;48.782;9.162;2023-03-14T13:50:58;2.05;;;0.60;;
25199;SDS011;33094;48.782;9.162;2023-03-14T14:24:43;2.63;;;0.60;;
25199;SDS011;33094;48.782;9.162;2023-03-14T14:37:43;1.92;;;0.98;;
25199;SDS011;33094;48.782;9.162;2023-03-14T14:40:20;2.13;;;0.75;;
25199;SDS011;33094;48.782;9.162;2023-03-14T14:48:10;0.80;;;0.45;;
25199;SDS011;33094;48.782;9.162;2023-03-14T14:56:04;1.15;;;0.70;;
25199;SDS011;33094;48.782;9.162;2023-03-14T15:16:40;2.40;;;0.82;;
25199;SDS011;33094;48.782;9.162;2023-03-14T15:19:13;3.25;;;0.73;;
25199;SDS011;33094;48.782;9.162;2023-03-14T15:24:33;5.05;;;1.48;;
25199;SDS011;33094;48.782;9.162;2023-03-14T15:35:03;6.70;;;1.52;;
25199;SDS011;33094;48.782;9.162;2023-03-14T15:42:41;3.10;;;1.00;;
25199;SDS011;33094;48.782;9.162;2023-03-14T16:13:50;3.72;;;0.85;;
25199;SDS011;33094;48.782;9.162;2023-03-14T16:17:07;1.98;;;0.80;;
25199;SDS011;33094;48.782;9.162;2023-03-14T16:19:35;4.47;;;1.15;;
25199;SDS011;33094;48.782;9.162;2023-03-14T16:29:42;2.30;;;0.80;;
25199;SDS011;33094;48.782;9.162;2023-03-14T16:32:11;2.40;;;0.98;;
25199;SDS011;33094;48.782;9.162;2023-03-14T16:37:13;1.95;;;1.00;;
25199;SDS011;33094;48.782;9.162;2023-03-14T16:39:46;6.10;;;1.10;;
25199;SDS011;33094;48.782;9.162;2023-03-14T16:44:41;4.88;;;1.50;;
25199;SDS011;33094;48.782;9.162;2023-03-14T16:52:20;3.03;;;1.17;;
25199;SDS011;33094;48.782;9.162;2023-03-14T16:54:46;7.03;;;1.63;;
25199;SDS011;33094;48.782;9.162;2023-03-14T16:57:36;8.23;;;1.38;;
25199;SDS011;33094;48.782;9.162;2023-03-14T17:05:09;4.05;;;1.67;;
25199;SDS011;33094;48.782;9.162;2023-03-14T17:07:40;3.67;;;1.10;;
25199;SDS011;33094;48.782;9.162;2023-03-14T17:18:13;5.88;;;1.05;;
25199;SDS011;33094;48.782;9.162;2023-03-14T17:20:42;2.97;;;1.10;;
25199;SDS011;33094;48.782;9.162;2023-03-14T17:28:30;1.42;;;1.00;;
25199;SDS011;33094;48.782;9.162;2023-03-14T17:31:09;6.63;;;1.60;;
25199;SDS011;33094;48.782;9.162;2023-03-14T17:33:42;8.95;;;1.42;;
25199;SDS011;33094;48.782;9.162;2023-03-14T17:38:54;5.80;;;1.45;;
25199;SDS011;33094;48.782;9.162;2023-03-14T17:41:22;7.70;;;1.70;;
25199;SDS011;33094;48.782;9.162;2023-03-14T17:43:47;8.82;;;1.60;;
25199;SDS011;33094;48.782;9.162;2023-03-14T17:48:47;5.28;;;1.50;;
25199;SDS011;33094;48.782;9.162;2023-03-14T17:53:48;6.90;;;1.90;;
25199;SDS011;33094;48.782;9.162;2023-03-14T17:56:14;9.23;;;1.98;;
25199;SDS011;33094;48.782;9.162;2023-03-14T17:58:43;4.88;;;1.77;;
25199;SDS011;33094;48.782;9.162;2023-03-14T18:01:13;6.78;;;1.95;;
25199;SDS011;33094;48.782;9.162;2023-03-14T18:03:40;10.40;;;1.88;;
25199;SDS011;33094;48.782;9.162;2023-03-14T18:06:10;2.55;;;1.67;;
25199;SDS011;33094;48.782;9.162;2023-03-14T18:08:39;3.85;;;1.92;;
25199;SDS011;33094;48.782;9.162;2023-03-14T18:16:19;8.45;;;2.00;;
25199;SDS011;33094;48.782;9.162;2023-03-14T18:21:21;4.82;;;1.85;;
25199;SDS011;33094;48.782;9.162;2023-03-14T18:23:47;5.88;;;1.40;;
25199;SDS011;33094;48.782;9.162;2023-03-14T18:26:13;5.25;;;1.92;;
25199;SDS011;33094;48.782;9.162;2023-03-14T18:28:41;8.07;;;2.28;;
25199;SDS011;33094;48.782;9.162;2023-03-14T18:31:08;5.93;;;2.47;;
25199;SDS011;33094;48.782;9.162;2023-03-14T18:33:35;6.72;;;2.00;;
25199;SDS011;33094;48.782;9.162;2023-03-14T18:36:05;7.47;;;2.28;;
25199;SDS011;33094;48.782;9.162;2023-03-14T18:38:36;3.90;;;1.60;;
25199;SDS011;33094;48.782;9.162;2023-03-14T18:41:07;5.38;;;1.88;;
25199;SDS011;33094;48.782;9.162;2023-03-14T18:43:34;9.18;;;2.13;;
25199;SDS011;33094;48.782;9.162;2023-03-14T18:46:00;3.22;;;1.50;;
25199;SDS011;33094;48.782;9.162;2023-03-14T18:48:26;4.75;;;1.73;;
25199;SDS011;33094;48.782;9.162;2023-03-14T18:53:19;8.80;;;1.83;;
25199;SDS011;33094;48.782;9.162;2023-03-14T18:55:46;6.22;;;2.28;;
25199;SDS011;33094;48.782;9.162;2023-03-14T18:58:17;5.05;;;0.90;;
25199;SDS011;33094;48.782;9.162;2023-03-14T19:00:48;3.08;;;0.95;;
25199;SDS011;33094;48.782;9.162;2023-03-14T19:03:22;6.97;;;1.20;;
25199;SDS011;33094;48.782;9.162;2023-03-14T19:05:51;7.30;;;1.20;;
25199;SDS011;33094;48.782;9.162;2023-03-14T19:08:18;7.95;;;1.20;;
25199;SDS011;33094;48.782;9.162;2023-03-14T19:13:17;2.47;;;1.13;;
25199;SDS011;33094;48.782;9.162;2023-03-14T19:15:42;2.83;;;1.30;;
25199;SDS011;33094;48.782;9.162;2023-03-14T19:18:08;3.42;;;1.20;;
25199;SDS011;33094;48.782;9.162;2023-03-14T19:20:38;6.43;;;0.82;;
25199;SDS011;33094;48.782;9.162;2023-03-14T19:23:05;3.15;;;1.23;;
25199;SDS011;33094;48.782;9.162;2023-03-14T19:25:32;4.40;;;1.48;;
25199;SDS011;33094;48.782;9.162;2023-03-14T19:27:58;5.65;;;1.65;;
25199;SDS011;33094;48.782;9.162;2023-03-14T19:35:27;9.75;;;1.92;;
25199;SDS011;33094;48.782;9.162;2023-03-14T19:37:59;4.57;;;1.48;;
25199;SDS011;33094;48.782;9.162;2023-03-14T19:40:25;4.57;;;1.40;;
25199;SDS011;33094;48.782;9.162;2023-03-14T19:42:51;2.67;;;1.40;;
25199;SDS011;33094;48.782;9.162;2023-03-14T19:45:16;3.55;;;1.23;;
25199;SDS011;33094;48.782;9.162;2023-03-14T19:47:42;5.30;;;1.45;;
25199;SDS011;33094;48.782;9.162;2023-03-14T19:50:08;5.88;;;1.50;;
25199;SDS011;33094;48.782;9.162;2023-03-14T19:52:34;5.32;;;1.60;;
25199;SDS011;33094;48.782;9.162;2023-03-14T19:55:02;3.42;;;1.75;;
25199;SDS011;33094;48.782;9.162;2023-03-14T19:57:29;5.63;;;1.63;;
25199;SDS011;33094;48.782;9.162;2023-03-14T19:59:54;5.32;;;2.13;;
25199;SDS011;33094;48.782;9.162;2023-03-14T20:04:47;2.53;;;1.77;;
25199;SDS011;33094;48.782;9.162;2023-03-14T20:07:14;6.70;;;1.88;;
25199;SDS011;33094;48.782;9.162;2023-03-14T20:09:40;4.80;;;1.75;;
25199;SDS011;33094;48.782;9.162;2023-03-14T20:12:09;7.25;;;2.03;;
25199;SDS011;33094;48.782;9.162;2023-03-14T20:24:57;8.80;;;2.10;;
25199;SDS011;33094;48.782;9.162;2023-03-14T20:30:19;6.90;;;2.10;;
25199;SDS011;33094;48.782;9.162;2023-03-14T20:32:51;9.43;;;2.33;;
25199;SDS011;33094;48.782;9.162;2023-03-14T20:37:50;7.63;;;2.15;;
25199;SDS011;33094;48.782;9.162;2023-03-14T20:42:56;4.35;;;1.70;;
25199;SDS011;33094;48.782;9.162;2023-03-14T20:45:22;6.85;;;1.70;;
25199;SDS011;33094;48.782;9.162;2023-03-14T20:53:18;6.93;;;2.20;;
25199;SDS011;33094;48.782;9.162;2023-03-14T20:55:47;5.97;;;2.10;;
25199;SDS011;33094;48.782;9.162;2023-03-14T21:03:33;5.90;;;2.10;;
25199;SDS011;33094;48.782;9.162;2023-03-14T21:06:00;4.97;;;2.60;;
